createdAt,value
2019-05-11T00:02:48.345Z,5.49
2019-05-11T00:05:52.633Z,5.41
2019-05-11T00:08:56.914Z,5.34
2019-05-11T00:12:01.248Z,5.30
2019-05-11T00:15:05.605Z,5.29
2019-05-11T00:18:09.947Z,5.26
2019-05-11T00:21:14.238Z,5.19
2019-05-11T00:24:18.535Z,5.17
2019-05-11T00:27:22.832Z,5.16
2019-05-11T00:30:27.157Z,5.15
2019-05-11T00:33:31.393Z,5.15
2019-05-11T00:36:35.668Z,5.09
2019-05-11T00:39:39.950Z,5.08
2019-05-11T00:42:44.242Z,5.05
2019-05-11T00:45:48.549Z,4.96
2019-05-11T00:48:52.839Z,4.93
2019-05-11T00:51:57.115Z,4.89
2019-05-11T00:55:01.382Z,4.83
2019-05-11T00:58:05.665Z,4.79
2019-05-11T01:01:09.951Z,4.79
2019-05-11T01:04:14.243Z,4.78
2019-05-11T01:07:18.603Z,4.74
2019-05-11T01:10:33.820Z,4.70
2019-05-11T01:13:28.892Z,4.64
2019-05-11T01:16:33.219Z,4.63
2019-05-11T01:19:37.702Z,4.61
2019-05-11T01:22:41.985Z,4.58
2019-05-11T01:25:46.273Z,4.58
2019-05-11T01:28:50.549Z,4.56
2019-05-11T01:31:54.813Z,4.53
2019-05-11T01:34:59.104Z,4.56
2019-05-11T01:38:03.394Z,4.60
2019-05-11T01:41:07.678Z,4.63
2019-05-11T01:44:11.967Z,4.66
2019-05-11T01:47:16.242Z,4.70
2019-05-11T01:50:20.558Z,4.63
2019-05-11T01:53:24.817Z,4.54
2019-05-11T01:56:29.097Z,4.46
2019-05-11T01:59:33.391Z,4.43
2019-05-11T02:02:37.686Z,4.31
2019-05-11T02:05:41.984Z,4.22
2019-05-11T02:08:46.267Z,4.24
2019-05-11T02:11:50.557Z,4.21
2019-05-11T02:14:54.810Z,4.16
2019-05-11T02:17:59.104Z,4.05
2019-05-11T02:21:03.384Z,3.99
2019-05-11T02:24:07.664Z,3.99
2019-05-11T02:27:11.964Z,3.97
2019-05-11T02:30:16.342Z,3.98
2019-05-11T02:33:20.627Z,3.91
2019-05-11T02:36:24.914Z,3.90
2019-05-11T02:39:29.182Z,3.85
2019-05-11T02:42:33.446Z,3.80
2019-05-11T02:45:42.351Z,3.81
2019-05-11T02:48:46.635Z,3.80
2019-05-11T02:51:51.014Z,3.75
2019-05-11T02:54:57.387Z,3.66
2019-05-11T02:58:01.663Z,3.57
2019-05-11T03:01:05.939Z,3.60
2019-05-11T03:04:10.234Z,3.59
2019-05-11T03:07:14.515Z,3.60
2019-05-11T03:10:18.825Z,3.64
2019-05-11T03:13:23.112Z,3.68
2019-05-11T03:16:27.397Z,3.65
2019-05-11T03:19:31.655Z,3.64
2019-05-11T03:22:35.928Z,3.60
2019-05-11T03:25:40.213Z,3.55
2019-05-11T03:28:44.486Z,3.45
2019-05-11T03:31:48.790Z,3.44
2019-05-11T03:34:53.054Z,3.47
2019-05-11T03:37:57.336Z,3.51
2019-05-11T03:41:01.640Z,3.56
2019-05-11T03:44:05.927Z,3.51
2019-05-11T03:47:10.197Z,3.53
2019-05-11T03:50:14.967Z,3.55
2019-05-11T03:53:19.253Z,3.80
2019-05-11T03:56:23.515Z,3.82
2019-05-11T03:59:27.809Z,3.80
2019-05-11T04:02:32.088Z,3.72
2019-05-11T04:05:36.405Z,3.77
2019-05-11T04:08:40.753Z,3.79
2019-05-11T04:11:45.015Z,3.74
2019-05-11T04:14:49.301Z,3.72
2019-05-11T04:17:53.591Z,3.78
2019-05-11T04:20:57.920Z,3.87
2019-05-11T04:24:02.195Z,3.89
2019-05-11T04:27:06.489Z,3.95
2019-05-11T04:30:10.861Z,4.05
2019-05-11T04:33:15.152Z,4.13
2019-05-11T04:36:19.471Z,4.15
2019-05-11T04:39:23.787Z,4.21
2019-05-11T04:42:28.103Z,4.33
2019-05-11T04:45:32.415Z,4.42
2019-05-11T04:48:36.737Z,4.51
2019-05-11T04:51:41.030Z,4.59
2019-05-11T04:54:45.295Z,4.70
2019-05-11T04:57:49.578Z,4.81
2019-05-11T05:00:53.919Z,4.97
2019-05-11T05:04:13.290Z,5.10
2019-05-11T05:07:05.362Z,5.18
2019-05-11T05:10:13.918Z,5.26
2019-05-11T05:13:16.372Z,5.41
2019-05-11T05:16:20.671Z,5.59
2019-05-11T05:19:24.991Z,5.72
2019-05-11T05:22:29.316Z,5.86
2019-05-11T05:25:33.638Z,6.01
2019-05-11T05:28:37.911Z,6.12
2019-05-11T05:31:42.279Z,6.22
2019-05-11T05:34:46.547Z,6.35
2019-05-11T05:37:50.859Z,6.47
2019-05-11T05:40:55.133Z,6.59
2019-05-11T05:43:59.398Z,6.69
2019-05-11T05:47:03.708Z,6.84
2019-05-11T05:50:08.300Z,6.91
2019-05-11T05:53:12.581Z,6.99
2019-05-11T05:56:16.868Z,7.14
2019-05-11T05:59:21.188Z,7.30
2019-05-11T06:02:25.488Z,7.40
2019-05-11T06:05:29.776Z,7.56
2019-05-11T06:08:34.087Z,7.63
2019-05-11T06:11:38.426Z,7.73
2019-05-11T06:14:42.777Z,7.84
2019-05-11T06:17:47.079Z,7.92
2019-05-11T06:20:51.394Z,7.99
2019-05-11T06:23:55.667Z,8.10
2019-05-11T06:26:59.951Z,8.25
2019-05-11T06:30:04.566Z,8.35
2019-05-11T06:33:08.960Z,8.49
2019-05-11T06:36:13.341Z,8.73
2019-05-11T06:39:17.737Z,8.85
2019-05-11T06:42:22.088Z,8.96
2019-05-11T06:45:26.398Z,9.01
2019-05-11T06:48:30.703Z,9.10
2019-05-11T06:51:34.994Z,9.15
2019-05-11T06:54:39.275Z,9.27
2019-05-11T06:57:43.591Z,9.42
2019-05-11T07:00:47.907Z,9.53
2019-05-11T07:03:52.193Z,9.69
2019-05-11T07:06:56.500Z,9.88
2019-05-11T07:10:03.835Z,10.11
2019-05-11T07:13:08.793Z,10.25
2019-05-11T07:16:13.125Z,10.42
2019-05-11T07:19:17.437Z,10.75
2019-05-11T07:22:21.746Z,11.00
2019-05-11T07:25:26.304Z,10.79
2019-05-11T07:28:30.607Z,11.06
2019-05-11T07:31:34.978Z,11.16
2019-05-11T07:34:39.290Z,11.17
2019-05-11T07:37:43.567Z,10.87
2019-05-11T07:40:47.872Z,10.84
2019-05-11T07:43:52.170Z,10.74
2019-05-11T07:46:58.586Z,10.62
2019-05-11T07:50:02.573Z,10.56
2019-05-11T07:53:08.151Z,10.57
2019-05-11T07:56:12.594Z,10.84
2019-05-11T07:59:18.392Z,11.13
2019-05-11T08:02:22.922Z,11.23
2019-05-11T08:05:28.360Z,11.22
2019-05-11T08:08:32.814Z,11.40
2019-05-11T08:11:38.916Z,11.74
2019-05-11T08:14:56.673Z,11.94
2019-05-11T08:17:49.171Z,11.84
2019-05-11T08:20:53.472Z,11.76
2019-05-11T08:23:58.745Z,11.84
2019-05-11T08:27:03.193Z,12.00
2019-05-11T08:30:08.573Z,12.14
2019-05-11T08:33:12.879Z,12.25
2019-05-11T08:36:18.448Z,12.21
2019-05-11T08:39:22.834Z,12.50
2019-05-11T08:42:28.844Z,12.52
2019-05-11T08:45:33.358Z,12.12
2019-05-11T08:48:38.831Z,12.11
2019-05-11T08:51:43.267Z,12.28
2019-05-11T08:54:48.696Z,12.18
2019-05-11T08:57:53.116Z,12.27
2019-05-11T09:00:58.219Z,12.32
2019-05-11T09:04:02.794Z,12.40
2019-05-11T09:07:07.881Z,12.31
2019-05-11T09:10:12.603Z,12.11
2019-05-11T09:13:18.557Z,12.10
2019-05-11T09:16:23.039Z,12.38
2019-05-11T09:19:28.457Z,12.49
2019-05-11T09:22:33.112Z,12.58
2019-05-11T09:25:38.472Z,12.65
2019-05-11T09:28:43.028Z,12.59
2019-05-11T09:31:48.733Z,12.60
2019-05-11T09:34:53.105Z,12.82
2019-05-11T09:37:58.762Z,12.69
2019-05-11T09:41:03.255Z,12.72
2019-05-11T09:44:08.967Z,12.72
2019-05-11T09:47:13.625Z,12.91
2019-05-11T09:50:18.221Z,13.09
2019-05-11T09:53:22.505Z,13.12
2019-05-11T09:56:28.774Z,13.12
2019-05-11T09:59:33.115Z,12.90
2019-05-11T10:02:38.520Z,12.88
2019-05-11T10:05:43.251Z,12.86
2019-05-11T10:08:48.717Z,12.80
2019-05-11T10:11:53.195Z,13.13
2019-05-11T10:14:59.119Z,13.70
2019-05-11T10:18:03.587Z,13.70
2019-05-11T10:21:08.249Z,13.82
2019-05-11T10:24:12.520Z,14.16
2019-05-11T10:27:19.207Z,14.19
2019-05-11T10:30:23.524Z,14.06
2019-05-11T10:33:28.229Z,14.19
2019-05-11T10:36:32.578Z,14.63
2019-05-11T10:39:38.320Z,14.25
2019-05-11T10:42:42.805Z,14.06
2019-05-11T10:45:48.378Z,13.75
2019-05-11T10:48:52.710Z,13.88
2019-05-11T10:51:58.662Z,14.11
2019-05-11T10:55:03.193Z,14.14
2019-05-11T10:58:08.654Z,14.22
2019-05-11T11:01:13.016Z,14.36
2019-05-11T11:04:18.429Z,14.44
2019-05-11T11:07:22.866Z,14.54
2019-05-11T11:10:28.606Z,14.67
2019-05-11T11:13:33.099Z,14.49
2019-05-11T11:16:42.049Z,14.58
2019-05-11T11:19:44.572Z,14.65
2019-05-11T11:22:48.905Z,14.66
2019-05-11T11:25:53.172Z,14.53
2019-05-11T11:28:58.139Z,14.75
2019-05-11T11:32:02.504Z,14.87
2019-05-11T11:35:08.527Z,14.76
2019-05-11T11:38:12.944Z,14.76
2019-05-11T11:41:18.504Z,14.86
2019-05-11T11:44:23.106Z,14.95
2019-05-11T11:47:28.182Z,15.12
2019-05-11T11:50:32.512Z,15.14
2019-05-11T11:53:38.367Z,15.46
2019-05-11T11:56:42.707Z,15.31
2019-05-11T11:59:48.059Z,15.48
2019-05-11T12:02:52.575Z,15.48
2019-05-11T12:05:59.305Z,15.27
2019-05-11T12:09:08.865Z,15.33
2019-05-11T12:12:13.324Z,15.45
2019-05-11T12:15:17.918Z,15.73
2019-05-11T12:18:22.231Z,15.69
2019-05-11T12:21:27.707Z,15.86
2019-05-11T12:24:32.095Z,16.07
2019-05-11T12:27:38.409Z,16.05
2019-05-11T12:30:42.389Z,16.16
2019-05-11T12:33:48.317Z,16.24
2019-05-11T12:36:52.828Z,16.10
2019-05-11T12:39:58.280Z,16.02
2019-05-11T12:43:02.699Z,16.24
2019-05-11T12:46:08.081Z,16.20
2019-05-11T12:49:12.575Z,15.91
2019-05-11T12:52:18.428Z,15.74
2019-05-11T12:55:24.013Z,16.15
2019-05-11T12:58:28.293Z,16.06
2019-05-11T13:01:32.593Z,15.83
2019-05-11T13:04:38.489Z,15.49
2019-05-11T13:07:42.801Z,15.54
2019-05-11T13:10:47.930Z,15.47
2019-05-11T13:13:52.329Z,15.85
2019-05-11T13:16:58.751Z,15.92
2019-05-11T13:20:02.592Z,16.27
2019-05-11T13:23:07.995Z,16.23
2019-05-11T13:26:13.507Z,16.39
2019-05-11T13:29:18.233Z,16.34
2019-05-11T13:32:22.518Z,16.30
2019-05-11T13:35:28.560Z,16.54
2019-05-11T13:38:32.952Z,16.52
2019-05-11T13:41:38.305Z,16.59
2019-05-11T13:44:42.680Z,16.61
2019-05-11T13:47:54.489Z,16.93
2019-05-11T13:50:52.915Z,16.87
2019-05-11T13:53:58.440Z,16.78
2019-05-11T13:57:02.841Z,17.05
2019-05-11T14:00:08.425Z,17.10
2019-05-11T14:03:12.982Z,17.00
2019-05-11T14:06:18.483Z,17.07
2019-05-11T14:09:22.969Z,16.79
2019-05-11T14:12:28.543Z,16.69
2019-05-11T14:15:33.001Z,16.74
2019-05-11T14:18:38.643Z,16.57
2019-05-11T14:21:43.070Z,16.25
2019-05-11T14:24:48.322Z,16.49
2019-05-11T14:27:52.673Z,16.43
2019-05-11T14:30:57.846Z,16.40
2019-05-11T14:34:02.269Z,16.54
2019-05-11T14:37:08.596Z,16.79
2019-05-11T14:40:12.553Z,16.79
2019-05-11T14:43:18.777Z,16.64
2019-05-11T14:46:22.853Z,16.36
2019-05-11T14:49:27.608Z,16.28
2019-05-11T14:52:31.979Z,16.51
2019-05-11T14:55:38.068Z,16.82
2019-05-11T14:58:42.237Z,16.75
2019-05-11T15:01:48.803Z,16.70
2019-05-11T15:04:52.545Z,16.37
2019-05-11T15:07:58.182Z,16.61
2019-05-11T15:11:02.677Z,16.61
2019-05-11T15:14:08.080Z,16.80
2019-05-11T15:17:12.621Z,17.05
2019-05-11T15:20:17.886Z,17.30
2019-05-11T15:23:22.161Z,17.58
2019-05-11T15:26:27.827Z,17.52
2019-05-11T15:29:32.201Z,17.53
2019-05-11T15:32:37.602Z,17.78
2019-05-11T15:35:41.937Z,17.80
2019-05-11T15:38:48.142Z,18.06
2019-05-11T15:42:06.539Z,18.66
2019-05-11T15:44:58.669Z,18.65
2019-05-11T15:48:02.951Z,19.08
2019-05-11T15:51:08.066Z,19.17
2019-05-11T15:54:12.516Z,18.99
2019-05-11T15:57:17.960Z,19.03
2019-05-11T16:00:23.531Z,19.20
2019-05-11T16:03:27.861Z,19.28
2019-05-11T16:06:32.153Z,18.63
2019-05-11T16:09:38.040Z,19.16
2019-05-11T16:12:42.386Z,18.89
2019-05-11T16:15:47.687Z,18.83
2019-05-11T16:18:52.276Z,18.98
2019-05-11T16:21:56.610Z,19.04
2019-05-11T16:25:09.667Z,18.96
2019-05-11T16:28:18.736Z,18.91
2019-05-11T16:31:22.533Z,18.74
2019-05-11T16:34:27.754Z,18.41
2019-05-11T16:37:32.339Z,18.32
2019-05-11T16:40:38.574Z,18.62
2019-05-11T16:43:42.893Z,18.67
2019-05-11T16:46:48.023Z,18.79
2019-05-11T16:49:53.302Z,18.40
2019-05-11T16:52:58.573Z,18.01
2019-05-11T16:56:03.027Z,17.71
2019-05-11T16:59:10.352Z,17.92
2019-05-11T17:02:14.806Z,17.98
2019-05-11T17:05:26.605Z,17.54
2019-05-11T17:08:27.502Z,17.71
2019-05-11T17:11:31.142Z,17.85
2019-05-11T17:14:39.010Z,18.07
2019-05-11T17:17:44.391Z,17.35
2019-05-11T17:20:48.716Z,16.38
2019-05-11T17:23:53.005Z,15.92
2019-05-11T17:27:00.337Z,15.52
2019-05-11T17:30:05.568Z,14.97
2019-05-11T17:33:09.888Z,14.56
2019-05-11T17:36:15.506Z,14.38
2019-05-11T17:39:19.827Z,14.09
2019-05-11T17:42:24.148Z,13.65
2019-05-11T17:45:28.444Z,13.46
2019-05-11T17:48:32.775Z,13.39
2019-05-11T17:51:39.465Z,13.29
2019-05-11T17:54:43.773Z,13.23
2019-05-11T17:57:49.699Z,13.18
2019-05-11T18:00:54.367Z,13.04
2019-05-11T18:03:58.649Z,12.81
2019-05-11T18:07:02.978Z,12.68
2019-05-11T18:10:08.177Z,12.59
2019-05-11T18:13:12.701Z,12.52
2019-05-11T18:16:18.717Z,12.53
2019-05-11T18:19:23.115Z,12.46
2019-05-11T18:22:28.463Z,12.46
2019-05-11T18:25:32.950Z,12.12
2019-05-11T18:28:37.973Z,12.12
2019-05-11T18:31:42.352Z,11.96
2019-05-11T18:34:48.465Z,11.90
2019-05-11T18:37:55.838Z,11.86
2019-05-11T18:41:00.280Z,11.72
2019-05-11T18:44:05.057Z,11.60
2019-05-11T18:47:09.523Z,11.70
2019-05-11T18:50:29.054Z,11.53
2019-05-11T18:53:20.284Z,11.08
2019-05-11T18:56:24.679Z,11.08
2019-05-11T18:59:29.027Z,11.00
2019-05-11T19:02:33.592Z,11.00
2019-05-11T19:05:38.551Z,10.87
2019-05-11T19:08:43.070Z,10.83
2019-05-11T19:11:48.891Z,10.66
2019-05-11T19:14:54.545Z,10.66
2019-05-11T19:17:58.946Z,10.50
2019-05-11T19:21:03.491Z,10.49
2019-05-11T19:24:09.569Z,10.40
2019-05-11T19:27:13.939Z,10.29
2019-05-11T19:30:18.646Z,10.13
2019-05-11T19:33:23.029Z,10.11
2019-05-11T19:36:27.793Z,10.15
2019-05-11T19:39:32.178Z,9.97
2019-05-11T19:42:53.641Z,9.93
2019-05-11T19:45:58.122Z,9.85
2019-05-11T19:49:02.667Z,9.81
2019-05-11T19:52:08.611Z,9.66
2019-05-11T19:55:13.372Z,9.69
2019-05-11T19:58:19.244Z,9.51
2019-05-11T20:01:23.829Z,9.38
2019-05-11T20:04:29.013Z,9.38
2019-05-11T20:07:33.351Z,9.30
2019-05-11T20:10:38.265Z,9.26
2019-05-11T20:13:42.918Z,9.23
2019-05-11T20:16:47.829Z,9.13
2019-05-11T20:19:52.233Z,9.10
2019-05-11T20:22:58.477Z,9.14
2019-05-11T20:26:02.789Z,9.04
2019-05-11T20:29:08.083Z,8.98
2019-05-11T20:32:12.729Z,8.88
2019-05-11T20:35:17.092Z,8.86
2019-05-11T20:38:21.482Z,8.80
2019-05-11T20:41:27.935Z,8.74
2019-05-11T20:44:32.022Z,8.73
2019-05-11T20:47:38.221Z,8.67
2019-05-11T20:50:42.365Z,8.58
2019-05-11T20:53:48.850Z,8.54
2019-05-11T20:56:52.709Z,8.53
2019-05-11T20:59:57.621Z,8.48
2019-05-11T21:03:01.998Z,8.37
2019-05-11T21:06:08.058Z,8.30
2019-05-11T21:09:12.733Z,8.31
2019-05-11T21:12:18.455Z,8.24
2019-05-11T21:15:31.623Z,8.24
2019-05-11T21:18:33.404Z,8.18
2019-05-11T21:21:49.593Z,8.15
2019-05-11T21:24:43.942Z,8.22
2019-05-11T21:27:48.867Z,8.15
2019-05-11T21:30:53.247Z,8.04
2019-05-11T21:33:57.531Z,7.97
2019-05-11T21:37:01.893Z,7.95
2019-05-11T21:40:08.485Z,7.91
2019-05-11T21:43:12.596Z,7.90
2019-05-11T21:46:18.096Z,7.78
2019-05-11T21:49:22.643Z,7.76
2019-05-11T21:52:28.756Z,7.76
2019-05-11T21:55:37.759Z,7.69
2019-05-11T21:58:40.974Z,7.73
2019-05-11T22:01:45.344Z,7.65
2019-05-11T22:04:49.789Z,7.67
2019-05-11T22:07:54.090Z,7.64
2019-05-11T22:10:59.996Z,7.58
2019-05-11T22:14:04.620Z,7.60
2019-05-11T22:17:08.931Z,7.48
2019-05-11T22:20:13.297Z,7.50
2019-05-11T22:23:18.344Z,7.45
2019-05-11T22:26:22.625Z,7.46
2019-05-11T22:29:28.603Z,7.42
2019-05-11T22:32:32.939Z,7.43
2019-05-11T22:35:37.719Z,7.43
2019-05-11T22:38:42.072Z,7.40
2019-05-11T22:41:48.145Z,7.37
2019-05-11T22:44:54.386Z,7.38
2019-05-11T22:47:58.682Z,7.43
2019-05-11T22:51:02.958Z,7.35
2019-05-11T22:54:11.028Z,7.34
2019-05-11T22:57:14.649Z,7.37
2019-05-11T23:00:27.904Z,7.38
2019-05-11T23:03:32.270Z,7.33
2019-05-11T23:06:40.308Z,7.28
2019-05-11T23:09:42.538Z,7.22
2019-05-11T23:12:48.263Z,7.08
2019-05-11T23:15:52.658Z,7.09
2019-05-11T23:18:56.921Z,7.03
2019-05-11T23:22:01.178Z,7.07
2019-05-11T23:25:08.116Z,7.00
2019-05-11T23:28:12.372Z,6.93
2019-05-11T23:31:16.635Z,6.93
2019-05-11T23:34:20.903Z,6.97
2019-05-11T23:37:25.190Z,7.05
2019-05-11T23:40:29.463Z,6.97
2019-05-11T23:43:33.740Z,6.97
2019-05-11T23:46:38.680Z,6.95
2019-05-11T23:49:43.066Z,6.94
2019-05-11T23:52:50.135Z,6.95
2019-05-11T23:55:53.423Z,6.93
2019-05-11T23:58:57.966Z,6.90
